Wilson Cadiz — 8PSY — position and weather

sailwx.info

Track history (hours):
 
Tides and Currents Weather Stations Pressure Air Temp Water Temp Dewpoint Dewpoint Depression Visibility Wind Speed Wind Dir Waves Ship Positions

Wilson Cadiz

Last reported at 2016-Apr-30 01:31 UTC. Time now 2016-May-01 15:30 UTC.
Position N 59°21' W 003°42'.

Length 100 m; draft 5.6 m.

Type: Ship. MMSI: 314216000.

Date/timePositionNaut miles runAvg speedWind from/ knotsBaromVisibWave heightAir tempDewpointWater temp
2016-Apr-30 01:31N 59°21' W 003°42'1010.3
2016-Apr-30 00:33N 59°13' W 003°55'1010.3
2016-Apr-29 23:33N 59°06' W 004°09'1010.2
2016-Apr-29 22:33N 58°59' W 004°23'213 9.2
2016-Apr-28 23:31N 55°45' W 007°06'9 8.5
2016-Apr-28 22:29N 55°36' W 007°02'8 9.0
2016-Apr-28 21:33N 55°28' W 006°58'10 9.4
2016-Apr-28 20:31N 55°19' W 006°55'9 8.1
2016-Apr-28 19:27N 55°11' W 007°02'8 0.3
2016-Apr-27 20:33N 55°15' W 006°51'1111.4
2016-Apr-27 19:33N 55°21' W 006°33'1111.4
2016-Apr-27 18:33N 55°26' W 006°15'1111.4
2016-Apr-27 17:33N 55°21' W 005°57'2612.1
2016-Apr-27 15:22N 54°59' W 005°30'911.1
2016-Apr-27 14:33N 54°52' W 005°21'1010.3
2016-Apr-27 13:33N 54°43' W 005°11'10 9.7
2016-Apr-27 12:33N 54°34' W 005°05'1010.0
2016-Apr-27 11:33N 54°24' W 005°02'1110.7
2016-Apr-27 10:33N 54°14' W 004°59'5110.3
2016-Apr-27 05:33N 53°37' W 003°57'1212.3
2016-Apr-27 04:33N 53°34' W 003°37'1211.6
2016-Apr-27 03:33N 53°32' W 003°18'1010.1
2016-Apr-27 02:33N 53°28' W 003°03'8 8.4
2016-Apr-27 01:33N 53°21' W 002°54'0 0.1
2016-Apr-27 00:33N 53°21' W 002°54'0 0.0
2016-Apr-26 23:33N 53°21' W 002°54'0 0.0
2016-Apr-26 22:33N 53°21' W 002°54'0 0.0
2016-Apr-26 21:33N 53°21' W 002°54'0 0.0
2016-Apr-26 20:30N 53°21' W 002°54'0 0.0
2016-Apr-26 19:33N 53°21' W 002°54'0 0.0
2016-Apr-26 18:30N 53°21' W 002°54'0 0.0
2016-Apr-26 17:33N 53°21' W 002°54'0 0.0
2016-Apr-26 16:33N 53°21' W 002°54'0 0.0
2016-Apr-26 15:33N 53°21' W 002°54'0 0.0
2016-Apr-26 14:33N 53°21' W 002°54'0 0.0
2016-Apr-26 13:33N 53°21' W 002°54'0 0.0
2016-Apr-26 12:33N 53°21' W 002°54'0 0.0
2016-Apr-26 11:33N 53°21' W 002°54'0 0.0
2016-Apr-26 10:33N 53°21' W 002°54'0 0.0
2016-Apr-26 09:30N 53°21' W 002°54'0 0.0
2016-Apr-26 08:33N 53°21' W 002°54'0 0.0
2016-Apr-26 07:33N 53°21' W 002°54'0 0.0
2016-Apr-26 06:33N 53°21' W 002°54'0 0.0
2016-Apr-26 05:33N 53°21' W 002°54'0 0.0
2016-Apr-26 04:30N 53°21' W 002°54'0 0.0
2016-Apr-26 03:33N 53°21' W 002°54'0 0.0
2016-Apr-26 02:30N 53°21' W 002°54'0 0.0
2016-Apr-26 01:33N 53°21' W 002°54'0 0.0
2016-Apr-26 00:33N 53°21' W 002°54'0 0.0
2016-Apr-25 23:30N 53°21' W 002°54'0 0.0
2016-Apr-25 22:33N 53°21' W 002°54'0 0.0
2016-Apr-25 21:33N 53°21' W 002°54'0 0.0
2016-Apr-25 20:33N 53°21' W 002°54'0 0.0
2016-Apr-25 19:33N 53°21' W 002°54'0 0.0
2016-Apr-25 18:33N 53°21' W 002°54'0 0.0
2016-Apr-25 17:33N 53°21' W 002°54'0 0.0
2016-Apr-25 16:33N 53°21' W 002°54'0 0.0
2016-Apr-25 15:27N 53°21' W 002°54'0 0.0
2016-Apr-25 14:33N 53°21' W 002°54'0 0.0
2016-Apr-25 13:33N 53°21' W 002°54'0 0.0
2016-Apr-25 12:33N 53°21' W 002°54'0 0.0
2016-Apr-25 11:33N 53°21' W 002°54'0 0.0
2016-Apr-25 10:33N 53°21' W 002°54'0 0.0
2016-Apr-25 09:33N 53°21' W 002°54'0 0.0
2016-Apr-25 08:33N 53°21' W 002°54'0 0.1
2016-Apr-25 07:33N 53°21' W 002°54'0 0.1
2016-Apr-25 06:33N 53°21' W 002°54'0 0.0
2016-Apr-25 05:30N 53°21' W 002°54'0 0.0
2016-Apr-25 04:33N 53°21' W 002°54'0 0.0
2016-Apr-25 03:33N 53°21' W 002°54'0 0.0
2016-Apr-25 02:33N 53°21' W 002°54'0 0.1
2016-Apr-25 01:33N 53°21' W 002°54'0 0.1
2016-Apr-25 00:30N 53°21' W 002°54'0 0.1
2016-Apr-24 23:30N 53°21' W 002°54'0 0.1
2016-Apr-24 22:30N 53°21' W 002°54'0 0.1
2016-Apr-24 21:33N 53°21' W 002°54'0 0.1
2016-Apr-24 20:33N 53°21' W 002°54'0 0.0
2016-Apr-24 19:30N 53°21' W 002°54'0 0.0
2016-Apr-24 18:33N 53°21' W 002°54'0 0.0
2016-Apr-24 17:33N 53°21' W 002°54'0 0.1
2016-Apr-24 16:33N 53°21' W 002°54'0 0.1
2016-Apr-24 15:33N 53°21' W 002°54'0 0.1
2016-Apr-24 14:33N 53°21' W 002°54'0 0.1
2016-Apr-24 13:30N 53°21' W 002°54'0 0.0
2016-Apr-24 12:33N 53°21' W 002°54'0 0.1
2016-Apr-24 11:33N 53°21' W 002°54'0 0.1
2016-Apr-24 10:33N 53°21' W 002°54'0 0.1
2016-Apr-24 09:33N 53°21' W 002°54'0 0.0
2016-Apr-24 08:33N 53°21' W 002°54'0 0.1
2016-Apr-24 07:33N 53°21' W 002°54'0 0.1
2016-Apr-24 06:33N 53°21' W 002°54'0 0.1
2016-Apr-24 05:33N 53°21' W 002°54'0 0.1
2016-Apr-24 04:33N 53°21' W 002°54'0 0.1
2016-Apr-24 03:33N 53°21' W 002°54'0 0.0
2016-Apr-24 02:33N 53°21' W 002°54'0 0.1
2016-Apr-24 01:33N 53°21' W 002°54'0 0.1
2016-Apr-24 00:33N 53°21' W 002°54'0 0.1
2016-Apr-23 23:33N 53°21' W 002°54'0 0.1
2016-Apr-23 22:33N 53°21' W 002°54'0 0.1
2016-Apr-23 21:24N 53°21' W 002°54'0 0.0
2016-Apr-23 20:30N 53°21' W 002°54'0 0.0
2016-Apr-23 19:33N 53°21' W 002°54'0 0.0
2016-Apr-23 18:33N 53°21' W 002°54'0 0.1
2016-Apr-23 17:33N 53°21' W 002°54'0 0.1
2016-Apr-23 16:33N 53°21' W 002°54'0 0.1
2016-Apr-23 15:33N 53°21' W 002°54'0 0.1
2016-Apr-23 14:33N 53°21' W 002°54'0 0.1
2016-Apr-23 13:33N 53°21' W 002°54'0 0.0
2016-Apr-23 12:33N 53°21' W 002°54'0 0.0
2016-Apr-23 11:30N 53°21' W 002°54'0 0.1
2016-Apr-23 10:33N 53°21' W 002°54'0 0.1
2016-Apr-23 09:33N 53°21' W 002°54'0 0.0
2016-Apr-23 08:33N 53°21' W 002°54'0 0.1
2016-Apr-23 07:33N 53°21' W 002°54'0 0.0
2016-Apr-23 06:30N 53°21' W 002°54'0 0.1
2016-Apr-23 05:33N 53°21' W 002°54'0 0.0
2016-Apr-23 04:30N 53°21' W 002°54'0 0.0
2016-Apr-23 03:33N 53°21' W 002°54'0 0.0
2016-Apr-23 02:30N 53°21' W 002°54'0 0.0
2016-Apr-23 01:33N 53°21' W 002°54'0 0.1
2016-Apr-23 00:33N 53°21' W 002°54'0 0.1
2016-Apr-22 23:33N 53°21' W 002°54'0 0.1
2016-Apr-22 22:33N 53°21' W 002°54'0 0.1
2016-Apr-22 21:33N 53°21' W 002°54'0 0.0
2016-Apr-22 20:33N 53°21' W 002°54'0 0.0
2016-Apr-22 19:33N 53°21' W 002°54'0 0.0
2016-Apr-22 18:33N 53°21' W 002°54'0 0.0
2016-Apr-22 17:33N 53°21' W 002°54'0 0.1
2016-Apr-22 16:33N 53°21' W 002°54'0 0.1
2016-Apr-22 15:33N 53°21' W 002°54'0 0.1
2016-Apr-22 14:30N 53°21' W 002°54'0 0.0
2016-Apr-22 13:33N 53°21' W 002°54'0 0.1
2016-Apr-22 12:30N 53°21' W 002°54'0 0.1
2016-Apr-22 11:33N 53°21' W 002°54'9 8.6
2016-Apr-22 10:33N 53°28' W 003°03'10 9.7
2016-Apr-22 09:33N 53°31' W 003°18'1110.9
2016-Apr-22 08:33N 53°31' W 003°37'1211.7
2016-Apr-22 07:33N 53°30' W 003°56'100 9.0
2016-Apr-21 20:31N 52°10' W 005°33'2813.2
2016-Apr-21 18:21N 51°43' W 005°49'3511.4
2016-Apr-21 15:18N 51°08' W 005°50'910.3
2016-Apr-21 14:28N 50°60' W 005°51'1010.3
2016-Apr-21 13:33N 50°50' W 005°51'1010.1
2016-Apr-21 12:33N 50°40' W 005°51'1110.7
2016-Apr-21 11:33N 50°29' W 005°51'1110.6
2016-Apr-21 10:33N 50°19' W 005°52'1410.3
2016-Apr-21 09:09N 50°04' W 005°52'53 9.4
2016-Apr-21 03:32N 49°58' W 004°31'1110.6
2016-Apr-21 02:33N 49°60' W 004°15'1111.2
2016-Apr-21 01:33N 50°02' W 003°58'1212.2
2016-Apr-21 00:33N 50°05' W 003°39'1312.6
2016-Apr-20 23:34N 50°07' W 003°20'1212.1
2016-Apr-20 22:33N 50°09' W 003°01'1111.2
2016-Apr-20 21:33N 50°12' W 002°44'10 9.9
2016-Apr-20 20:33N 50°14' W 002°29'10 8.6
2016-Apr-20 19:26N 50°15' W 002°14'8 8.1
2016-Apr-20 18:27N 50°17' W 002°02'8 8.3
2016-Apr-20 17:32N 50°18' W 001°50'9 9.5
2016-Apr-20 16:33N 50°21' W 001°36'1111.3
2016-Apr-20 15:33N 50°23' W 001°18'1212.5
2016-Apr-20 14:33N 50°25' W 000°59'1313.4
2016-Apr-20 13:33N 50°28' W 000°38'1312.9
2016-Apr-20 12:33N 50°30' W 000°19'1212.1
2016-Apr-20 11:33N 50°33' E 000°00'1111.4
2016-Apr-20 10:33N 50°35' E 000°18'1110.1
2016-Apr-20 09:31N 50°39' E 000°33'4611.5
2016-Apr-20 05:34N 51°06' E 001°31'1312.9
2016-Apr-20 04:33N 51°15' E 001°46'1111.1
2016-Apr-20 03:33N 51°24' E 001°56'1010.1
2016-Apr-20 02:33N 51°33' E 002°04'9 9.4
2016-Apr-20 01:33N 51°40' E 002°14'  
Track history (hours):
 
Tides and Currents Weather Stations Pressure Air Temp Water Temp Dewpoint Dewpoint Depression Visibility Wind Speed Wind Dir Waves Ship Positions

Wilson Cadiz

Last reported at 2016-Apr-30 01:31 UTC. Time now 2016-May-01 15:30 UTC.
Position N 59°21' W 003°42'.

Length 100 m; draft 5.6 m.

Type: Ship. MMSI: 314216000.

Date/timePositionNaut miles runAvg speedWind from/ knotsBaromVisibWave heightAir tempDewpointWater temp
2016-Apr-30 01:31N 59°21' W 003°42'1010.3
2016-Apr-30 00:33N 59°13' W 003°55'1010.3
2016-Apr-29 23:33N 59°06' W 004°09'1010.2
2016-Apr-29 22:33N 58°59' W 004°23'213 9.2
2016-Apr-28 23:31N 55°45' W 007°06'9 8.5
2016-Apr-28 22:29N 55°36' W 007°02'8 9.0
2016-Apr-28 21:33N 55°28' W 006°58'10 9.4
2016-Apr-28 20:31N 55°19' W 006°55'9 8.1
2016-Apr-28 19:27N 55°11' W 007°02'8 0.3
2016-Apr-27 20:33N 55°15' W 006°51'1111.4
2016-Apr-27 19:33N 55°21' W 006°33'1111.4
2016-Apr-27 18:33N 55°26' W 006°15'1111.4
2016-Apr-27 17:33N 55°21' W 005°57'2612.1
2016-Apr-27 15:22N 54°59' W 005°30'911.1
2016-Apr-27 14:33N 54°52' W 005°21'1010.3
2016-Apr-27 13:33N 54°43' W 005°11'10 9.7
2016-Apr-27 12:33N 54°34' W 005°05'1010.0
2016-Apr-27 11:33N 54°24' W 005°02'1110.7
2016-Apr-27 10:33N 54°14' W 004°59'5110.3
2016-Apr-27 05:33N 53°37' W 003°57'1212.3
2016-Apr-27 04:33N 53°34' W 003°37'1211.6
2016-Apr-27 03:33N 53°32' W 003°18'1010.1
2016-Apr-27 02:33N 53°28' W 003°03'8 8.4
2016-Apr-27 01:33N 53°21' W 002°54'0 0.1
2016-Apr-27 00:33N 53°21' W 002°54'0 0.0
2016-Apr-26 23:33N 53°21' W 002°54'0 0.0
2016-Apr-26 22:33N 53°21' W 002°54'0 0.0
2016-Apr-26 21:33N 53°21' W 002°54'0 0.0
2016-Apr-26 20:30N 53°21' W 002°54'0 0.0
2016-Apr-26 19:33N 53°21' W 002°54'0 0.0
2016-Apr-26 18:30N 53°21' W 002°54'0 0.0
2016-Apr-26 17:33N 53°21' W 002°54'0 0.0
2016-Apr-26 16:33N 53°21' W 002°54'0 0.0
2016-Apr-26 15:33N 53°21' W 002°54'0 0.0
2016-Apr-26 14:33N 53°21' W 002°54'0 0.0
2016-Apr-26 13:33N 53°21' W 002°54'0 0.0
2016-Apr-26 12:33N 53°21' W 002°54'0 0.0
2016-Apr-26 11:33N 53°21' W 002°54'0 0.0
2016-Apr-26 10:33N 53°21' W 002°54'0 0.0
2016-Apr-26 09:30N 53°21' W 002°54'0 0.0
2016-Apr-26 08:33N 53°21' W 002°54'0 0.0
2016-Apr-26 07:33N 53°21' W 002°54'0 0.0
2016-Apr-26 06:33N 53°21' W 002°54'0 0.0
2016-Apr-26 05:33N 53°21' W 002°54'0 0.0
2016-Apr-26 04:30N 53°21' W 002°54'0 0.0
2016-Apr-26 03:33N 53°21' W 002°54'0 0.0
2016-Apr-26 02:30N 53°21' W 002°54'0 0.0
2016-Apr-26 01:33N 53°21' W 002°54'0 0.0
2016-Apr-26 00:33N 53°21' W 002°54'0 0.0
2016-Apr-25 23:30N 53°21' W 002°54'0 0.0
2016-Apr-25 22:33N 53°21' W 002°54'0 0.0
2016-Apr-25 21:33N 53°21' W 002°54'0 0.0
2016-Apr-25 20:33N 53°21' W 002°54'0 0.0
2016-Apr-25 19:33N 53°21' W 002°54'0 0.0
2016-Apr-25 18:33N 53°21' W 002°54'0 0.0
2016-Apr-25 17:33N 53°21' W 002°54'0 0.0
2016-Apr-25 16:33N 53°21' W 002°54'0 0.0
2016-Apr-25 15:27N 53°21' W 002°54'0 0.0
2016-Apr-25 14:33N 53°21' W 002°54'0 0.0
2016-Apr-25 13:33N 53°21' W 002°54'0 0.0
2016-Apr-25 12:33N 53°21' W 002°54'0 0.0
2016-Apr-25 11:33N 53°21' W 002°54'0 0.0
2016-Apr-25 10:33N 53°21' W 002°54'0 0.0
2016-Apr-25 09:33N 53°21' W 002°54'0 0.0
2016-Apr-25 08:33N 53°21' W 002°54'0 0.1
2016-Apr-25 07:33N 53°21' W 002°54'0 0.1
2016-Apr-25 06:33N 53°21' W 002°54'0 0.0
2016-Apr-25 05:30N 53°21' W 002°54'0 0.0
2016-Apr-25 04:33N 53°21' W 002°54'0 0.0
2016-Apr-25 03:33N 53°21' W 002°54'0 0.0
2016-Apr-25 02:33N 53°21' W 002°54'0 0.1
2016-Apr-25 01:33N 53°21' W 002°54'0 0.1
2016-Apr-25 00:30N 53°21' W 002°54'0 0.1
2016-Apr-24 23:30N 53°21' W 002°54'0 0.1
2016-Apr-24 22:30N 53°21' W 002°54'0 0.1
2016-Apr-24 21:33N 53°21' W 002°54'0 0.1
2016-Apr-24 20:33N 53°21' W 002°54'0 0.0
2016-Apr-24 19:30N 53°21' W 002°54'0 0.0
2016-Apr-24 18:33N 53°21' W 002°54'0 0.0
2016-Apr-24 17:33N 53°21' W 002°54'0 0.1
2016-Apr-24 16:33N 53°21' W 002°54'0 0.1
2016-Apr-24 15:33N 53°21' W 002°54'0 0.1
2016-Apr-24 14:33N 53°21' W 002°54'0 0.1
2016-Apr-24 13:30N 53°21' W 002°54'0 0.0
2016-Apr-24 12:33N 53°21' W 002°54'0 0.1
2016-Apr-24 11:33N 53°21' W 002°54'0 0.1
2016-Apr-24 10:33N 53°21' W 002°54'0 0.1
2016-Apr-24 09:33N 53°21' W 002°54'0 0.0
2016-Apr-24 08:33N 53°21' W 002°54'0 0.1
2016-Apr-24 07:33N 53°21' W 002°54'0 0.1
2016-Apr-24 06:33N 53°21' W 002°54'0 0.1
2016-Apr-24 05:33N 53°21' W 002°54'0 0.1
2016-Apr-24 04:33N 53°21' W 002°54'0 0.1
2016-Apr-24 03:33N 53°21' W 002°54'0 0.0
2016-Apr-24 02:33N 53°21' W 002°54'0 0.1
2016-Apr-24 01:33N 53°21' W 002°54'0 0.1
2016-Apr-24 00:33N 53°21' W 002°54'0 0.1
2016-Apr-23 23:33N 53°21' W 002°54'0 0.1
2016-Apr-23 22:33N 53°21' W 002°54'0 0.1
2016-Apr-23 21:24N 53°21' W 002°54'0 0.0
2016-Apr-23 20:30N 53°21' W 002°54'0 0.0
2016-Apr-23 19:33N 53°21' W 002°54'0 0.0
2016-Apr-23 18:33N 53°21' W 002°54'0 0.1
2016-Apr-23 17:33N 53°21' W 002°54'0 0.1
2016-Apr-23 16:33N 53°21' W 002°54'0 0.1
2016-Apr-23 15:33N 53°21' W 002°54'0 0.1
2016-Apr-23 14:33N 53°21' W 002°54'0 0.1
2016-Apr-23 13:33N 53°21' W 002°54'0 0.0
2016-Apr-23 12:33N 53°21' W 002°54'0 0.0
2016-Apr-23 11:30N 53°21' W 002°54'0 0.1
2016-Apr-23 10:33N 53°21' W 002°54'0 0.1
2016-Apr-23 09:33N 53°21' W 002°54'0 0.0
2016-Apr-23 08:33N 53°21' W 002°54'0 0.1
2016-Apr-23 07:33N 53°21' W 002°54'0 0.0
2016-Apr-23 06:30N 53°21' W 002°54'0 0.1
2016-Apr-23 05:33N 53°21' W 002°54'0 0.0
2016-Apr-23 04:30N 53°21' W 002°54'0 0.0
2016-Apr-23 03:33N 53°21' W 002°54'0 0.0
2016-Apr-23 02:30N 53°21' W 002°54'0 0.0
2016-Apr-23 01:33N 53°21' W 002°54'0 0.1
2016-Apr-23 00:33N 53°21' W 002°54'0 0.1
2016-Apr-22 23:33N 53°21' W 002°54'0 0.1
2016-Apr-22 22:33N 53°21' W 002°54'0 0.1
2016-Apr-22 21:33N 53°21' W 002°54'0 0.0
2016-Apr-22 20:33N 53°21' W 002°54'0 0.0
2016-Apr-22 19:33N 53°21' W 002°54'0 0.0
2016-Apr-22 18:33N 53°21' W 002°54'0 0.0
2016-Apr-22 17:33N 53°21' W 002°54'0 0.1
2016-Apr-22 16:33N 53°21' W 002°54'0 0.1
2016-Apr-22 15:33N 53°21' W 002°54'0 0.1
2016-Apr-22 14:30N 53°21' W 002°54'0 0.0
2016-Apr-22 13:33N 53°21' W 002°54'0 0.1
2016-Apr-22 12:30N 53°21' W 002°54'0 0.1
2016-Apr-22 11:33N 53°21' W 002°54'9 8.6
2016-Apr-22 10:33N 53°28' W 003°03'10 9.7
2016-Apr-22 09:33N 53°31' W 003°18'1110.9
2016-Apr-22 08:33N 53°31' W 003°37'1211.7
2016-Apr-22 07:33N 53°30' W 003°56'100 9.0
2016-Apr-21 20:31N 52°10' W 005°33'2813.2
2016-Apr-21 18:21N 51°43' W 005°49'3511.4
2016-Apr-21 15:18N 51°08' W 005°50'910.3
2016-Apr-21 14:28N 50°60' W 005°51'1010.3
2016-Apr-21 13:33N 50°50' W 005°51'1010.1
2016-Apr-21 12:33N 50°40' W 005°51'1110.7
2016-Apr-21 11:33N 50°29' W 005°51'1110.6
2016-Apr-21 10:33N 50°19' W 005°52'1410.3
2016-Apr-21 09:09N 50°04' W 005°52'53 9.4
2016-Apr-21 03:32N 49°58' W 004°31'1110.6
2016-Apr-21 02:33N 49°60' W 004°15'1111.2
2016-Apr-21 01:33N 50°02' W 003°58'1212.2
2016-Apr-21 00:33N 50°05' W 003°39'1312.6
2016-Apr-20 23:34N 50°07' W 003°20'1212.1
2016-Apr-20 22:33N 50°09' W 003°01'1111.2
2016-Apr-20 21:33N 50°12' W 002°44'10 9.9
2016-Apr-20 20:33N 50°14' W 002°29'10 8.6
2016-Apr-20 19:26N 50°15' W 002°14'8 8.1
2016-Apr-20 18:27N 50°17' W 002°02'8 8.3
2016-Apr-20 17:32N 50°18' W 001°50'9 9.5
2016-Apr-20 16:33N 50°21' W 001°36'1111.3
2016-Apr-20 15:33N 50°23' W 001°18'1212.5
2016-Apr-20 14:33N 50°25' W 000°59'1313.4
2016-Apr-20 13:33N 50°28' W 000°38'1312.9
2016-Apr-20 12:33N 50°30' W 000°19'1212.1
2016-Apr-20 11:33N 50°33' E 000°00'1111.4
2016-Apr-20 10:33N 50°35' E 000°18'1110.1
2016-Apr-20 09:31N 50°39' E 000°33'4611.5
2016-Apr-20 05:34N 51°06' E 001°31'1312.9
2016-Apr-20 04:33N 51°15' E 001°46'1111.1
2016-Apr-20 03:33N 51°24' E 001°56'1010.1
2016-Apr-20 02:33N 51°33' E 002°04'9 9.4
2016-Apr-20 01:33N 51°40' E 002°14'  

Dump ship's entire track history